Time;durP1;ratioP1;P1;durP2;ratioP2;P2;SDS_P1;SDS_P2;PMS_P1;PMS_P2;Temp;Humidity;BMP_temperature;BMP_pressure;BME280_temperature;BME280_humidity;BME280_pressure;Samples;Min_cycle;Max_cycle;Signal;HPM_P1;HPM_P2
2023/12/24 00:00:27;;;;;;;24.38;2.58;;;;;;;;;;4980317;28;20058;-72
2023/12/24 00:02:54;;;;;;;25.13;3.25;;;;;;;;;;4974289;28;20082;-72
2023/12/24 00:05:22;;;;;;;36.50;3.70;;;;;;;;;;4978768;28;20081;-72
2023/12/24 00:07:50;;;;;;;32.50;3.65;;;;;;;;;;4974139;28;20467;-73
2023/12/24 00:10:17;;;;;;;39.75;3.35;;;;;;;;;;4974809;28;20049;-72
2023/12/24 00:12:45;;;;;;;27.48;3.17;;;;;;;;;;4974579;28;20490;-73
2023/12/24 00:15:12;;;;;;;26.90;3.17;;;;;;;;;;4981511;28;20057;-72
2023/12/24 00:17:39;;;;;;;29.90;3.25;;;;;;;;;;4975324;28;20074;-71
2023/12/24 00:20:07;;;;;;;26.85;3.00;;;;;;;;;;4976054;28;20064;-72
2023/12/24 00:22:35;;;;;;;27.77;3.03;;;;;;;;;;4973298;28;20505;-72
2023/12/24 00:25:03;;;;;;;31.60;2.88;;;;;;;;;;4974946;28;20061;-73
2023/12/24 00:27:31;;;;;;;33.25;3.65;;;;;;;;;;4975314;28;20054;-73
2023/12/24 00:29:58;;;;;;;37.72;4.35;;;;;;;;;;4970932;28;20511;-73
2023/12/24 00:32:25;;;;;;;35.45;3.08;;;;;;;;;;4978489;28;20053;-72
2023/12/24 00:34:52;;;;;;;42.67;3.28;;;;;;;;;;4976956;28;20055;-72
2023/12/24 00:37:20;;;;;;;30.50;3.38;;;;;;;;;;4976637;28;20424;-72
2023/12/24 00:39:47;;;;;;;37.05;4.00;;;;;;;;;;4976905;28;20047;-72
2023/12/24 00:42:16;;;;;;;28.50;4.30;;;;;;;;;;4977576;28;20503;-72
2023/12/24 00:44:43;;;;;;;33.70;5.03;;;;;;;;;;4973797;28;20057;-72
2023/12/24 00:47:11;;;;;;;22.40;2.90;;;;;;;;;;4974523;28;20500;-72
2023/12/24 00:49:38;;;;;;;27.27;2.35;;;;;;;;;;4982221;28;20082;-72
2023/12/24 00:52:06;;;;;;;28.40;3.50;;;;;;;;;;4979632;28;20042;-72
2023/12/24 00:54:33;;;;;;;22.90;2.72;;;;;;;;;;4983283;28;20532;-72
2023/12/24 00:57:00;;;;;;;25.52;3.15;;;;;;;;;;4980046;28;20047;-72
2023/12/24 00:59:29;;;;;;;25.13;3.08;;;;;;;;;;4972024;28;20050;-71
2023/12/24 01:01:56;;;;;;;33.90;3.92;;;;;;;;;;4974487;28;20047;-72
2023/12/24 01:04:23;;;;;;;28.38;3.50;;;;;;;;;;4980882;28;20047;-71
2023/12/24 01:06:50;;;;;;;32.08;3.33;;;;;;;;;;4977732;28;20061;-72
2023/12/24 01:09:18;;;;;;;33.15;3.38;;;;;;;;;;4970058;28;20051;-71
2023/12/24 01:11:45;;;;;;;21.45;2.42;;;;;;;;;;4977746;28;20058;-72
2023/12/24 01:14:12;;;;;;;26.13;2.70;;;;;;;;;;4973419;28;20055;-72
2023/12/24 01:16:42;;;;;;;27.75;2.83;;;;;;;;;;4975396;28;20050;-72
2023/12/24 01:19:09;;;;;;;27.35;2.92;;;;;;;;;;4971257;28;20047;-72
2023/12/24 01:21:36;;;;;;;28.25;3.90;;;;;;;;;;4972513;28;20053;-71
2023/12/24 01:24:04;;;;;;;20.05;2.80;;;;;;;;;;4969727;28;20051;-72
2023/12/24 01:26:32;;;;;;;22.83;4.10;;;;;;;;;;4974402;28;20417;-72
2023/12/24 01:29:00;;;;;;;25.15;3.67;;;;;;;;;;4976285;28;20051;-71
2023/12/24 01:31:28;;;;;;;19.85;2.80;;;;;;;;;;4970823;28;20066;-72
2023/12/24 01:33:56;;;;;;;19.98;2.75;;;;;;;;;;4975331;28;20125;-72
2023/12/24 01:36:23;;;;;;;17.90;3.00;;;;;;;;;;4972917;28;20078;-72
2023/12/24 01:38:51;;;;;;;25.73;2.80;;;;;;;;;;4970443;28;20046;-72
2023/12/24 01:41:18;;;;;;;25.35;3.17;;;;;;;;;;4980955;28;21706;-71
2023/12/24 01:43:45;;;;;;;30.27;3.30;;;;;;;;;;4976639;28;20149;-72
2023/12/24 01:46:13;;;;;;;29.30;3.22;;;;;;;;;;4972627;28;20048;-71
2023/12/24 01:48:41;;;;;;;34.38;3.85;;;;;;;;;;4975726;28;20145;-72
2023/12/24 01:51:10;;;;;;;25.40;2.65;;;;;;;;;;4977855;28;20529;-72
2023/12/24 01:53:37;;;;;;;30.83;2.67;;;;;;;;;;4974700;28;20062;-72
2023/12/24 01:56:06;;;;;;;25.65;2.92;;;;;;;;;;4970307;28;20051;-71
2023/12/24 01:58:33;;;;;;;24.92;2.78;;;;;;;;;;4974049;28;20061;-72
2023/12/24 02:01:00;;;;;;;27.42;3.40;;;;;;;;;;4965358;28;20074;-72
2023/12/24 02:03:28;;;;;;;27.73;3.25;;;;;;;;;;4977769;28;20054;-72
2023/12/24 02:05:56;;;;;;;25.63;3.40;;;;;;;;;;4969068;28;20159;-72
2023/12/24 02:08:25;;;;;;;25.65;2.47;;;;;;;;;;4976868;28;20062;-72
2023/12/24 02:10:52;;;;;;;23.30;3.03;;;;;;;;;;4978538;28;20065;-72
2023/12/24 02:13:20;;;;;;;19.15;2.95;;;;;;;;;;4977314;28;20050;-72
2023/12/24 02:15:47;;;;;;;25.58;2.90;;;;;;;;;;4980902;28;20133;-71
2023/12/24 02:18:15;;;;;;;41.75;3.40;;;;;;;;;;4988524;28;20046;-72
2023/12/24 02:20:42;;;;;;;30.30;3.33;;;;;;;;;;4968323;28;20046;-71
2023/12/24 02:23:11;;;;;;;36.28;3.53;;;;;;;;;;4976366;28;20050;-72
2023/12/24 02:25:38;;;;;;;28.17;3.00;;;;;;;;;;4972058;28;20058;-72
2023/12/24 02:28:10;;;;;;;21.35;3.03;;;;;;;;;;4973726;28;20054;-71
2023/12/24 02:30:41;;;;;;;30.50;3.13;;;;;;;;;;4979041;28;20054;-72
2023/12/24 02:33:09;;;;;;;33.28;3.50;;;;;;;;;;4972996;28;20051;-72
2023/12/24 02:35:38;;;;;;;30.95;3.33;;;;;;;;;;4978706;28;20050;-72
2023/12/24 02:38:06;;;;;;;24.10;3.25;;;;;;;;;;4996118;28;20042;-71
2023/12/24 02:40:35;;;;;;;24.60;2.40;;;;;;;;;;4993880;28;20058;-72
2023/12/24 02:43:02;;;;;;;28.73;2.95;;;;;;;;;;4989092;28;20126;-72
2023/12/24 02:45:29;;;;;;;27.48;2.65;;;;;;;;;;4971872;28;20051;-72
2023/12/24 02:47:56;;;;;;;26.67;2.88;;;;;;;;;;4969744;28;20137;-72
2023/12/24 02:50:24;;;;;;;22.10;2.60;;;;;;;;;;4978104;28;20066;-72
2023/12/24 02:52:51;;;;;;;19.33;2.88;;;;;;;;;;4978315;28;20056;-72
2023/12/24 02:55:18;;;;;;;11.13;1.88;;;;;;;;;;4992448;28;20089;-72
2023/12/24 02:57:47;;;;;;;19.50;1.98;;;;;;;;;;4978792;28;20054;-72
2023/12/24 03:00:15;;;;;;;14.05;2.13;;;;;;;;;;4978523;28;20137;-72
2023/12/24 03:02:42;;;;;;;24.05;2.17;;;;;;;;;;4972330;28;20444;-72
2023/12/24 03:05:09;;;;;;;17.00;2.72;;;;;;;;;;4991640;28;20050;-72
2023/12/24 03:07:37;;;;;;;15.10;2.95;;;;;;;;;;4978279;28;20058;-73
2023/12/24 03:10:04;;;;;;;18.73;2.65;;;;;;;;;;4976461;28;20321;-73
2023/12/24 03:12:32;;;;;;;19.90;3.30;;;;;;;;;;4985108;28;20069;-73
2023/12/24 03:15:00;;;;;;;22.00;2.72;;;;;;;;;;4991794;28;20062;-73
2023/12/24 03:17:28;;;;;;;15.07;2.30;;;;;;;;;;4992111;28;20054;-72
2023/12/24 03:19:55;;;;;;;16.20;2.90;;;;;;;;;;4982925;28;20058;-72
2023/12/24 03:22:22;;;;;;;16.55;2.15;;;;;;;;;;4976616;28;20077;-74
2023/12/24 03:24:49;;;;;;;13.57;2.13;;;;;;;;;;4981997;28;20411;-73
2023/12/24 03:27:18;;;;;;;18.85;2.10;;;;;;;;;;4988213;28;20046;-72
2023/12/24 03:29:45;;;;;;;15.93;2.42;;;;;;;;;;4976179;28;20045;-73
2023/12/24 03:32:14;;;;;;;9.90;1.75;;;;;;;;;;4972152;28;20062;-73
2023/12/24 03:34:41;;;;;;;14.55;1.88;;;;;;;;;;4986426;28;20046;-73
2023/12/24 03:37:08;;;;;;;13.73;2.20;;;;;;;;;;4977829;28;20100;-73
2023/12/24 03:39:36;;;;;;;9.10;1.98;;;;;;;;;;4982007;28;20054;-72
2023/12/24 03:42:03;;;;;;;9.80;2.08;;;;;;;;;;4991359;28;20066;-73
2023/12/24 03:44:30;;;;;;;16.52;2.55;;;;;;;;;;4975195;28;20061;-72
2023/12/24 03:46:56;;;;;;;14.35;2.25;;;;;;;;;;4983955;28;20457;-72
2023/12/24 03:49:25;;;;;;;15.38;2.78;;;;;;;;;;4975096;28;20504;-72
2023/12/24 03:51:52;;;;;;;15.18;2.88;;;;;;;;;;4979507;28;20050;-72
2023/12/24 03:54:21;;;;;;;22.35;3.15;;;;;;;;;;4973178;28;20097;-72
2023/12/24 03:56:48;;;;;;;15.15;3.20;;;;;;;;;;4978803;28;20058;-72
2023/12/24 03:59:16;;;;;;;27.13;4.47;;;;;;;;;;4972705;28;20699;-72
2023/12/24 04:01:43;;;;;;;22.45;3.80;;;;;;;;;;4986918;28;20054;-72
2023/12/24 04:04:11;;;;;;;23.90;4.47;;;;;;;;;;4984390;28;20043;-72
2023/12/24 04:06:39;;;;;;;17.30;4.05;;;;;;;;;;4977186;28;20056;-72
2023/12/24 04:09:09;;;;;;;22.45;3.50;;;;;;;;;;4976991;28;20104;-72
2023/12/24 04:11:36;;;;;;;19.73;2.88;;;;;;;;;;4970012;28;20055;-72
2023/12/24 04:14:03;;;;;;;19.08;2.88;;;;;;;;;;4975365;28;20060;-72
2023/12/24 04:16:31;;;;;;;21.17;2.88;;;;;;;;;;4989341;28;20046;-72
2023/12/24 04:18:58;;;;;;;22.45;3.08;;;;;;;;;;4991064;28;20214;-72
2023/12/24 04:21:25;;;;;;;20.77;3.17;;;;;;;;;;4988290;28;20112;-72
2023/12/24 04:23:54;;;;;;;28.83;3.40;;;;;;;;;;4990738;28;20058;-73
2023/12/24 04:26:21;;;;;;;31.10;3.70;;;;;;;;;;4978298;28;20068;-72
2023/12/24 04:28:48;;;;;;;32.08;3.55;;;;;;;;;;4986195;28;20046;-72
2023/12/24 04:31:16;;;;;;;28.30;3.38;;;;;;;;;;4987010;28;20524;-72
2023/12/24 04:33:43;;;;;;;33.03;4.15;;;;;;;;;;4971929;28;20050;-72
2023/12/24 04:36:10;;;;;;;34.20;4.35;;;;;;;;;;4988078;28;20050;-72
2023/12/24 04:38:37;;;;;;;19.67;2.92;;;;;;;;;;4973373;28;20057;-72
2023/12/24 04:41:06;;;;;;;26.65;2.78;;;;;;;;;;4975858;28;20401;-72
2023/12/24 04:43:33;;;;;;;21.30;3.13;;;;;;;;;;4976242;28;20046;-72
2023/12/24 04:46:00;;;;;;;25.35;3.00;;;;;;;;;;4990617;28;20042;-72
2023/12/24 04:48:28;;;;;;;35.03;3.60;;;;;;;;;;4968499;28;20085;-72
2023/12/24 04:50:55;;;;;;;31.83;3.58;;;;;;;;;;4976365;28;20197;-72
2023/12/24 04:53:22;;;;;;;28.90;2.67;;;;;;;;;;4989701;28;20507;-72
2023/12/24 04:55:49;;;;;;;36.78;3.50;;;;;;;;;;4975983;28;20057;-72
2023/12/24 04:58:18;;;;;;;34.00;3.63;;;;;;;;;;4975879;28;20049;-72
2023/12/24 05:00:45;;;;;;;28.27;3.72;;;;;;;;;;4990181;28;20054;-72
2023/12/24 05:03:13;;;;;;;28.92;2.88;;;;;;;;;;4983878;28;20057;-72
2023/12/24 05:05:40;;;;;;;35.42;3.80;;;;;;;;;;4981857;28;20061;-72
2023/12/24 05:08:07;;;;;;;30.40;3.70;;;;;;;;;;4989947;28;20496;-72
2023/12/24 05:10:35;;;;;;;36.35;3.08;;;;;;;;;;4973354;28;20061;-72
2023/12/24 05:13:02;;;;;;;28.17;3.53;;;;;;;;;;4974729;28;20050;-72
2023/12/24 05:15:31;;;;;;;25.67;3.13;;;;;;;;;;4953274;28;20062;-72
2023/12/24 05:17:58;;;;;;;26.23;3.58;;;;;;;;;;4948286;28;20051;-72
2023/12/24 05:20:25;;;;;;;25.27;3.03;;;;;;;;;;4949366;28;20526;-72
2023/12/24 05:22:53;;;;;;;28.20;3.22;;;;;;;;;;4951063;28;20055;-72
2023/12/24 05:25:22;;;;;;;24.73;3.13;;;;;;;;;;4950695;28;20153;-72
2023/12/24 05:27:49;;;;;;;22.63;4.13;;;;;;;;;;4949117;28;20102;-72
2023/12/24 05:30:16;;;;;;;26.70;2.60;;;;;;;;;;4951140;28;20051;-71
2023/12/24 05:32:45;;;;;;;27.10;2.75;;;;;;;;;;4942025;28;20051;-72
2023/12/24 05:35:12;;;;;;;21.35;2.70;;;;;;;;;;4939939;28;20058;-72
2023/12/24 05:37:39;;;;;;;24.13;2.75;;;;;;;;;;4949182;28;20503;-72
2023/12/24 05:40:07;;;;;;;24.60;2.47;;;;;;;;;;4954597;28;20065;-72
2023/12/24 05:42:35;;;;;;;28.65;2.85;;;;;;;;;;4949491;28;20138;-72
2023/12/24 05:45:02;;;;;;;45.53;4.15;;;;;;;;;;4948648;28;20115;-72
2023/12/24 05:47:29;;;;;;;25.30;2.75;;;;;;;;;;4949947;28;20137;-72
2023/12/24 05:49:58;;;;;;;33.70;3.65;;;;;;;;;;4949701;28;20055;-72
2023/12/24 05:52:25;;;;;;;45.22;3.72;;;;;;;;;;4944959;28;20074;-72
2023/12/24 05:54:54;;;;;;;37.38;3.85;;;;;;;;;;4949504;28;20098;-72
2023/12/24 05:57:21;;;;;;;22.92;2.72;;;;;;;;;;4948988;28;20495;-73
2023/12/24 05:59:49;;;;;;;31.17;3.08;;;;;;;;;;4949965;28;20118;-72
2023/12/24 06:02:16;;;;;;;44.03;4.38;;;;;;;;;;4945590;28;20059;-72
2023/12/24 06:04:43;;;;;;;28.60;2.40;;;;;;;;;;4958711;28;20051;-74
2023/12/24 06:07:12;;;;;;;27.50;3.00;;;;;;;;;;4949288;28;20059;-74
2023/12/24 06:09:39;;;;;;;26.35;3.83;;;;;;;;;;4948503;28;20055;-75
2023/12/24 06:12:08;;;;;;;35.08;3.63;;;;;;;;;;4950922;28;20055;-74
2023/12/24 06:14:35;;;;;;;18.58;1.92;;;;;;;;;;4969296;28;20081;-74
2023/12/24 06:17:02;;;;;;;25.08;2.83;;;;;;;;;;4988894;28;20049;-74
2023/12/24 06:19:29;;;;;;;22.42;2.88;;;;;;;;;;4986847;28;20057;-74
2023/12/24 06:21:57;;;;;;;18.63;2.10;;;;;;;;;;4989513;28;20046;-74
2023/12/24 06:24:25;;;;;;;29.35;2.63;;;;;;;;;;4992205;28;20038;-74
2023/12/24 06:26:53;;;;;;;22.08;2.50;;;;;;;;;;4993453;28;20054;-74
2023/12/24 06:29:20;;;;;;;36.72;2.70;;;;;;;;;;4982597;28;20050;-74
2023/12/24 06:31:47;;;;;;;30.77;2.50;;;;;;;;;;4993496;28;20516;-75
2023/12/24 06:34:15;;;;;;;30.25;2.70;;;;;;;;;;4984130;28;20481;-74
2023/12/24 06:36:42;;;;;;;30.85;3.13;;;;;;;;;;4993216;28;20065;-74
2023/12/24 06:39:10;;;;;;;21.08;1.98;;;;;;;;;;4992011;28;20054;-74
2023/12/24 06:41:38;;;;;;;24.02;2.55;;;;;;;;;;4971472;28;20066;-74
2023/12/24 06:44:05;;;;;;;23.17;2.47;;;;;;;;;;4981989;28;20521;-75
2023/12/24 06:46:33;;;;;;;18.58;1.83;;;;;;;;;;4992680;28;20043;-74
2023/12/24 06:49:00;;;;;;;26.13;2.90;;;;;;;;;;4991539;28;20074;-75
2023/12/24 06:51:27;;;;;;;20.85;2.42;;;;;;;;;;4992346;28;20058;-75
2023/12/24 06:53:54;;;;;;;22.73;2.50;;;;;;;;;;4992337;28;20473;-75
2023/12/24 06:56:22;;;;;;;21.63;3.20;;;;;;;;;;4992431;28;20053;-75
2023/12/24 06:58:50;;;;;;;19.55;2.13;;;;;;;;;;4992755;28;20057;-75
2023/12/24 07:01:17;;;;;;;30.75;3.25;;;;;;;;;;4991564;28;20050;-74
2023/12/24 07:03:45;;;;;;;15.40;1.98;;;;;;;;;;4992333;28;20042;-75
2023/12/24 07:06:12;;;;;;;19.20;1.85;;;;;;;;;;4979678;28;20065;-75
2023/12/24 07:08:39;;;;;;;19.10;3.28;;;;;;;;;;4992256;28;20046;-75
2023/12/24 07:11:08;;;;;;;23.90;2.22;;;;;;;;;;4984298;28;20057;-73
2023/12/24 07:13:35;;;;;;;17.10;2.60;;;;;;;;;;4992809;28;20061;-75
2023/12/24 07:16:04;;;;;;;20.88;2.70;;;;;;;;;;4984241;28;20054;-74
2023/12/24 07:18:31;;;;;;;19.40;2.85;;;;;;;;;;4989985;28;20046;-74
2023/12/24 07:20:58;;;;;;;22.63;2.58;;;;;;;;;;4984785;28;20046;-75
2023/12/24 07:23:25;;;;;;;22.05;2.83;;;;;;;;;;4990678;28;20145;-75
2023/12/24 07:25:53;;;;;;;17.77;2.38;;;;;;;;;;4991576;28;20046;-74
2023/12/24 07:28:20;;;;;;;23.77;2.47;;;;;;;;;;4976320;28;20062;-75
2023/12/24 07:30:47;;;;;;;19.98;2.78;;;;;;;;;;4991658;28;20085;-74
2023/12/24 07:33:16;;;;;;;23.60;2.63;;;;;;;;;;4992119;28;20457;-75
2023/12/24 07:35:43;;;;;;;29.42;2.65;;;;;;;;;;4991151;28;20046;-75
2023/12/24 07:38:10;;;;;;;20.90;2.47;;;;;;;;;;4978029;28;20822;-74
2023/12/24 07:40:37;;;;;;;24.98;3.10;;;;;;;;;;4967811;28;20053;-75
2023/12/24 07:43:05;;;;;;;21.10;3.33;;;;;;;;;;4990836;28;20046;-74
2023/12/24 07:45:32;;;;;;;23.23;3.20;;;;;;;;;;4991258;28;20052;-74
2023/12/24 07:47:59;;;;;;;20.30;2.45;;;;;;;;;;4980176;28;20061;-75
2023/12/24 07:50:28;;;;;;;28.17;2.85;;;;;;;;;;4983952;28;20060;-75
2023/12/24 07:52:56;;;;;;;22.70;1.83;;;;;;;;;;4992643;28;20057;-74
2023/12/24 07:55:23;;;;;;;25.75;2.85;;;;;;;;;;4990560;28;20050;-75
2023/12/24 07:57:51;;;;;;;17.40;2.03;;;;;;;;;;4991749;28;20398;-74
2023/12/24 08:00:18;;;;;;;23.05;2.85;;;;;;;;;;4979108;28;20054;-75
2023/12/24 08:02:46;;;;;;;23.90;3.40;;;;;;;;;;4978467;28;20137;-74
2023/12/24 08:05:13;;;;;;;32.95;2.90;;;;;;;;;;4990532;28;20046;-74
2023/12/24 08:07:42;;;;;;;23.88;3.20;;;;;;;;;;4991556;28;20061;-74
2023/12/24 08:10:09;;;;;;;25.17;3.28;;;;;;;;;;4989875;28;20054;-74
2023/12/24 08:12:36;;;;;;;29.55;3.45;;;;;;;;;;4991082;28;20054;-74
2023/12/24 08:15:04;;;;;;;31.02;3.45;;;;;;;;;;4989335;28;20047;-74
2023/12/24 08:17:32;;;;;;;29.17;2.75;;;;;;;;;;4990599;28;20121;-74
2023/12/24 08:19:59;;;;;;;19.70;2.88;;;;;;;;;;4977441;28;20054;-74
2023/12/24 08:22:26;;;;;;;28.10;3.22;;;;;;;;;;4980777;28;20085;-74
2023/12/24 08:24:55;;;;;;;33.70;2.90;;;;;;;;;;4990933;28;20058;-74
2023/12/24 08:27:22;;;;;;;23.50;2.35;;;;;;;;;;4972050;28;20054;-75
2023/12/24 08:29:50;;;;;;;19.35;2.85;;;;;;;;;;4991514;28;20057;-74
2023/12/24 08:32:17;;;;;;;26.52;2.88;;;;;;;;;;4989496;28;20054;-73
2023/12/24 08:34:44;;;;;;;19.60;2.65;;;;;;;;;;4975387;28;20533;-74
2023/12/24 08:37:11;;;;;;;31.83;3.55;;;;;;;;;;4989713;28;20042;-75
2023/12/24 08:39:38;;;;;;;25.38;2.53;;;;;;;;;;4981018;28;20046;-74
2023/12/24 08:42:07;;;;;;;18.65;2.35;;;;;;;;;;4986438;28;20052;-74
2023/12/24 08:44:35;;;;;;;19.15;3.60;;;;;;;;;;4991156;28;20504;-74
2023/12/24 08:47:02;;;;;;;19.15;2.20;;;;;;;;;;4989774;28;20529;-74
2023/12/24 08:49:29;;;;;;;20.42;2.40;;;;;;;;;;4995139;28;20059;-75
2023/12/24 08:51:56;;;;;;;23.05;2.30;;;;;;;;;;4981130;28;20500;-74
2023/12/24 08:54:25;;;;;;;26.13;2.70;;;;;;;;;;4989700;28;20051;-74
2023/12/24 08:56:53;;;;;;;17.20;2.20;;;;;;;;;;4977198;28;20050;-74
2023/12/24 08:59:21;;;;;;;32.95;3.22;;;;;;;;;;4990038;28;20062;-74
2023/12/24 09:01:49;;;;;;;31.17;4.00;;;;;;;;;;4985763;28;20051;-74
2023/12/24 09:04:17;;;;;;;28.00;3.25;;;;;;;;;;4988744;28;20061;-74
2023/12/24 09:06:45;;;;;;;22.23;2.42;;;;;;;;;;4990034;28;20046;-74
2023/12/24 09:09:13;;;;;;;21.10;2.60;;;;;;;;;;4989555;28;20612;-74
2023/12/24 09:11:40;;;;;;;22.08;2.45;;;;;;;;;;4989984;28;20172;-74
2023/12/24 09:14:08;;;;;;;20.98;2.60;;;;;;;;;;4989046;28;20062;-74
2023/12/24 09:16:36;;;;;;;20.30;2.70;;;;;;;;;;4990515;28;20056;-74
2023/12/24 09:19:04;;;;;;;20.95;2.08;;;;;;;;;;4976432;28;20397;-73
2023/12/24 09:21:31;;;;;;;26.70;3.20;;;;;;;;;;4990315;28;20050;-74
2023/12/24 09:24:00;;;;;;;22.13;3.03;;;;;;;;;;4975289;28;20046;-74
2023/12/24 09:26:28;;;;;;;25.40;3.15;;;;;;;;;;4990329;28;20125;-73
2023/12/24 09:28:55;;;;;;;18.65;1.90;;;;;;;;;;4989110;28;20047;-74
2023/12/24 09:31:23;;;;;;;24.98;2.83;;;;;;;;;;4989848;28;20050;-73
2023/12/24 09:33:51;;;;;;;23.33;2.65;;;;;;;;;;4988184;28;20129;-74
2023/12/24 09:36:19;;;;;;;22.52;2.70;;;;;;;;;;4989858;28;20047;-74
2023/12/24 09:38:46;;;;;;;13.70;2.13;;;;;;;;;;4988462;28;20050;-74
2023/12/24 09:41:13;;;;;;;19.42;2.20;;;;;;;;;;4986693;28;20540;-74
2023/12/24 09:43:41;;;;;;;15.63;2.53;;;;;;;;;;4989246;28;20042;-75
2023/12/24 09:46:08;;;;;;;14.40;1.90;;;;;;;;;;4974875;28;20050;-74
2023/12/24 09:48:35;;;;;;;22.65;2.35;;;;;;;;;;4988830;28;20046;-74
2023/12/24 09:51:06;;;;;;;21.58;2.42;;;;;;;;;;4989752;28;20054;-74
2023/12/24 09:53:33;;;;;;;23.60;2.60;;;;;;;;;;4989186;28;20050;-73
2023/12/24 09:56:01;;;;;;;20.52;2.58;;;;;;;;;;4989522;28;20392;-74
2023/12/24 09:58:28;;;;;;;16.55;2.38;;;;;;;;;;4986212;28;20485;-74
2023/12/24 10:00:55;;;;;;;19.02;2.10;;;;;;;;;;4989956;28;20057;-75
2023/12/24 10:03:23;;;;;;;21.45;2.15;;;;;;;;;;4988587;28;20377;-74
2023/12/24 10:06:00;;;;;;;25.05;3.10;;;;;;;;;;4990481;28;20482;-74
2023/12/24 10:08:28;;;;;;;21.10;2.35;;;;;;;;;;4987741;28;20046;-74
2023/12/24 10:10:56;;;;;;;19.23;2.10;;;;;;;;;;4988329;28;20065;-73
2023/12/24 10:13:23;;;;;;;21.50;2.22;;;;;;;;;;4989142;28;20057;-73
2023/12/24 10:16:02;;;;;;;16.65;2.40;;;;;;;;;;4977727;28;20498;-74
2023/12/24 10:18:29;;;;;;;21.85;2.03;;;;;;;;;;4989418;28;20046;-74
2023/12/24 10:21:04;;;;;;;16.73;2.10;;;;;;;;;;4986742;28;20050;-74
2023/12/24 10:23:32;;;;;;;20.75;2.50;;;;;;;;;;4965552;28;20129;-75
2023/12/24 10:26:03;;;;;;;18.77;2.00;;;;;;;;;;4987987;28;20050;-74
2023/12/24 10:28:30;;;;;;;19.13;2.42;;;;;;;;;;4989770;28;20046;-73
2023/12/24 10:31:08;;;;;;;17.33;2.38;;;;;;;;;;4988591;28;20270;-74
2023/12/24 10:33:35;;;;;;;17.63;1.92;;;;;;;;;;4983841;28;20125;-75
2023/12/24 10:36:03;;;;;;;17.13;1.65;;;;;;;;;;4988952;28;20046;-74
2023/12/24 10:38:30;;;;;;;17.38;2.08;;;;;;;;;;4987970;28;20046;-74
2023/12/24 10:40:59;;;;;;;13.93;1.80;;;;;;;;;;4988480;28;20101;-73
2023/12/24 10:43:26;;;;;;;13.10;1.90;;;;;;;;;;4988691;28;20061;-74
2023/12/24 10:45:53;;;;;;;17.52;2.30;;;;;;;;;;4973967;28;20494;-71
2023/12/24 10:48:21;;;;;;;19.50;2.50;;;;;;;;;;4974884;28;20050;-73
2023/12/24 10:50:48;;;;;;;20.83;2.20;;;;;;;;;;4981306;28;20515;-72
2023/12/24 10:53:16;;;;;;;26.50;2.38;;;;;;;;;;4979360;28;20062;-73
2023/12/24 10:55:48;;;;;;;15.95;2.00;;;;;;;;;;4975924;28;20038;-72
2023/12/24 10:58:22;;;;;;;14.32;1.70;;;;;;;;;;4978676;28;20054;-72
2023/12/24 11:00:49;;;;;;;18.65;2.00;;;;;;;;;;4980935;28;20050;-72
2023/12/24 11:03:31;;;;;;;13.77;2.20;;;;;;;;;;4972796;28;20085;-71
2023/12/24 11:05:58;;;;;;;25.45;2.55;;;;;;;;;;4985202;28;20109;-71
2023/12/24 11:08:30;;;;;;;18.23;2.00;;;;;;;;;;4980793;28;20054;-72
2023/12/24 11:10:57;;;;;;;18.17;3.10;;;;;;;;;;4982748;28;20101;-72
2023/12/24 11:13:43;;;;;;;32.72;2.40;;;;;;;;;;4991038;28;20054;-73
2023/12/24 11:16:11;;;;;;;21.75;1.73;;;;;;;;;;4988274;28;20055;-73
2023/12/24 11:18:43;;;;;;;22.58;2.25;;;;;;;;;;4984817;28;20050;-71
2023/12/24 11:21:12;;;;;;;20.42;2.38;;;;;;;;;;4976759;28;20413;-73
2023/12/24 11:23:40;;;;;;;15.40;2.67;;;;;;;;;;4979790;28;20069;-73
2023/12/24 11:26:31;;;;;;;15.98;2.50;;;;;;;;;;4975352;28;20050;-73
2023/12/24 11:28:59;;;;;;;20.48;2.33;;;;;;;;;;4967717;28;20062;-73
2023/12/24 11:31:28;;;;;;;21.98;2.60;;;;;;;;;;4978829;28;20057;-72
2023/12/24 11:33:56;;;;;;;18.42;2.83;;;;;;;;;;4984108;28;20080;-73
2023/12/24 11:36:24;;;;;;;16.92;2.90;;;;;;;;;;4980474;28;20057;-72
2023/12/24 11:38:54;;;;;;;22.08;2.58;;;;;;;;;;4972024;28;20050;-73
2023/12/24 11:41:24;;;;;;;17.70;2.22;;;;;;;;;;4970242;28;20065;-74
2023/12/24 11:43:57;;;;;;;24.40;2.60;;;;;;;;;;4981644;28;20073;-73
2023/12/24 11:46:25;;;;;;;19.95;2.30;;;;;;;;;;4982965;28;20047;-74
2023/12/24 11:48:55;;;;;;;19.95;2.45;;;;;;;;;;4984379;28;20050;-71
2023/12/24 11:51:23;;;;;;;18.73;3.10;;;;;;;;;;4981333;28;20082;-73
2023/12/24 11:53:58;;;;;;;18.30;2.75;;;;;;;;;;4991286;28;20050;-75
2023/12/24 11:56:25;;;;;;;18.50;2.45;;;;;;;;;;4990265;28;20049;-73
2023/12/24 11:58:59;;;;;;;22.48;2.33;;;;;;;;;;4970429;28;20058;-74
2023/12/24 12:01:27;;;;;;;19.55;1.80;;;;;;;;;;4967844;28;20054;-74
2023/12/24 12:03:58;;;;;;;19.23;2.10;;;;;;;;;;4991258;28;20050;-74
2023/12/24 12:06:25;;;;;;;18.08;2.10;;;;;;;;;;4989674;28;20117;-73
2023/12/24 12:08:55;;;;;;;19.73;3.13;;;;;;;;;;4991780;28;20050;-74
2023/12/24 12:11:22;;;;;;;25.50;2.92;;;;;;;;;;4989398;28;20053;-75
2023/12/24 12:13:50;;;;;;;22.15;2.83;;;;;;;;;;4991528;28;20050;-75
2023/12/24 12:16:17;;;;;;;19.73;2.30;;;;;;;;;;4980721;28;20413;-72
2023/12/24 12:18:44;;;;;;;18.50;2.15;;;;;;;;;;4991512;28;20409;-75
2023/12/24 12:21:13;;;;;;;22.05;2.35;;;;;;;;;;4976596;28;20082;-73
2023/12/24 12:23:40;;;;;;;19.88;2.20;;;;;;;;;;4990164;28;20050;-73
2023/12/24 12:26:08;;;;;;;23.77;3.15;;;;;;;;;;4995035;28;20385;-75
2023/12/24 12:28:35;;;;;;;12.60;2.83;;;;;;;;;;4991066;28;20057;-73
2023/12/24 12:31:03;;;;;;;18.55;2.25;;;;;;;;;;4980053;28;20453;-74
2023/12/24 12:33:30;;;;;;;15.82;2.15;;;;;;;;;;4991462;28;20046;-74
2023/12/24 12:35:57;;;;;;;22.40;2.85;;;;;;;;;;4990677;28;20054;-73
2023/12/24 12:38:26;;;;;;;18.88;2.70;;;;;;;;;;4990143;28;20061;-73
2023/12/24 12:40:54;;;;;;;16.15;2.05;;;;;;;;;;4986736;28;20049;-74
2023/12/24 12:43:21;;;;;;;14.52;2.28;;;;;;;;;;4985404;28;20082;-73
2023/12/24 12:45:48;;;;;;;20.02;2.40;;;;;;;;;;4984053;28;20053;-73
2023/12/24 12:48:16;;;;;;;19.50;2.70;;;;;;;;;;4989538;28;20061;-74
2023/12/24 12:50:43;;;;;;;17.08;2.17;;;;;;;;;;4991167;28;20050;-73
2023/12/24 12:53:10;;;;;;;17.25;1.98;;;;;;;;;;4990383;28;20050;-72
2023/12/24 12:55:39;;;;;;;19.02;2.33;;;;;;;;;;4989790;28;20047;-73
2023/12/24 12:58:13;;;;;;;21.20;2.35;;;;;;;;;;4989887;28;20043;-73
2023/12/24 13:00:40;;;;;;;20.23;2.90;;;;;;;;;;4989989;28;20121;-73
2023/12/24 13:03:08;;;;;;;28.02;3.42;;;;;;;;;;4989690;28;20382;-72
2023/12/24 13:05:36;;;;;;;15.75;2.33;;;;;;;;;;4986514;28;20046;-72
2023/12/24 13:08:14;;;;;;;19.85;1.88;;;;;;;;;;4982048;28;20054;-72
2023/12/24 13:10:43;;;;;;;19.73;2.63;;;;;;;;;;4974492;28;20429;-71
2023/12/24 13:13:11;;;;;;;17.27;2.40;;;;;;;;;;4982685;28;20549;-72
2023/12/24 13:15:38;;;;;;;25.10;3.22;;;;;;;;;;4981106;28;20168;-71
2023/12/24 13:18:16;;;;;;;18.70;2.22;;;;;;;;;;4981633;28;20148;-72
2023/12/24 13:20:43;;;;;;;14.15;1.75;;;;;;;;;;4993237;28;20052;-71
2023/12/24 13:23:11;;;;;;;16.35;3.05;;;;;;;;;;4975172;28;20137;-72
2023/12/24 13:25:40;;;;;;;22.55;2.75;;;;;;;;;;4971714;28;20053;-72
2023/12/24 13:28:09;;;;;;;18.25;2.00;;;;;;;;;;4975138;28;20054;-72
2023/12/24 13:30:36;;;;;;;36.30;3.78;;;;;;;;;;4984592;28;20050;-74
2023/12/24 13:33:04;;;;;;;21.45;2.97;;;;;;;;;;4988810;28;20050;-74
2023/12/24 13:35:34;;;;;;;29.98;2.72;;;;;;;;;;4975097;28;20050;-74
2023/12/24 13:38:01;;;;;;;19.63;2.38;;;;;;;;;;4988894;28;20053;-74
2023/12/24 13:40:28;;;;;;;26.70;2.47;;;;;;;;;;4972511;28;20137;-73
2023/12/24 13:42:56;;;;;;;25.13;3.38;;;;;;;;;;4990469;28;20050;-73
2023/12/24 13:45:24;;;;;;;21.77;3.10;;;;;;;;;;4987908;28;20060;-74
2023/12/24 13:47:52;;;;;;;18.48;2.30;;;;;;;;;;4989698;28;20046;-73
2023/12/24 13:50:20;;;;;;;14.88;2.20;;;;;;;;;;4988163;28;20054;-73
2023/12/24 13:52:47;;;;;;;18.48;2.78;;;;;;;;;;4989712;28;20065;-74
2023/12/24 13:55:16;;;;;;;24.05;2.55;;;;;;;;;;4975190;28;20057;-73
2023/12/24 13:57:43;;;;;;;24.02;2.67;;;;;;;;;;4990149;28;20050;-73
2023/12/24 14:00:11;;;;;;;20.90;2.60;;;;;;;;;;4980959;28;20058;-73
2023/12/24 14:02:40;;;;;;;21.48;2.13;;;;;;;;;;4990280;28;20473;-73
2023/12/24 14:05:08;;;;;;;25.85;2.33;;;;;;;;;;4988788;28;20047;-73
2023/12/24 14:07:35;;;;;;;25.10;3.03;;;;;;;;;;4972852;28;20153;-73
2023/12/24 14:10:03;;;;;;;22.02;2.53;;;;;;;;;;4971497;28;20054;-73
2023/12/24 14:12:30;;;;;;;23.95;2.88;;;;;;;;;;4989626;28;20499;-73
2023/12/24 14:14:57;;;;;;;26.40;2.75;;;;;;;;;;4989084;28;20054;-74
2023/12/24 14:17:25;;;;;;;20.48;2.35;;;;;;;;;;4988138;28;20054;-73
2023/12/24 14:19:53;;;;;;;34.10;4.50;;;;;;;;;;4971690;28;20050;-73
2023/12/24 14:22:22;;;;;;;29.98;3.13;;;;;;;;;;4988296;28;20056;-73
2023/12/24 14:24:50;;;;;;;26.65;2.75;;;;;;;;;;4969190;28;20101;-73
2023/12/24 14:27:19;;;;;;;36.42;3.88;;;;;;;;;;4976900;28;20058;-73
2023/12/24 14:29:46;;;;;;;35.53;3.40;;;;;;;;;;4983725;28;20133;-73
2023/12/24 14:32:13;;;;;;;34.28;2.95;;;;;;;;;;4972764;28;20061;-73
2023/12/24 14:34:41;;;;;;;37.15;4.10;;;;;;;;;;4989463;28;20047;-73